createdAt,value
2018-06-14T00:00:23.108Z,11.27
2018-06-14T00:02:57.621Z,12.43
2018-06-14T00:05:32.237Z,13.50
2018-06-14T00:08:07.233Z,11.57
2018-06-14T00:10:41.707Z,10.03
2018-06-14T00:13:16.232Z,11.07
2018-06-14T00:15:50.861Z,11.43
2018-06-14T00:18:25.410Z,10.90
2018-06-14T00:20:59.993Z,11.50
2018-06-14T00:23:34.880Z,10.23
2018-06-14T00:26:09.553Z,12.03
2018-06-14T00:28:44.944Z,10.27
2018-06-14T00:31:19.835Z,10.47
2018-06-14T00:33:54.609Z,11.13
2018-06-14T00:36:29.114Z,9.80
2018-06-14T00:39:05.649Z,10.07
2018-06-14T00:41:40.665Z,9.67
2018-06-14T00:44:15.114Z,7.93
2018-06-14T00:46:50.004Z,8.60
2018-06-14T00:49:24.311Z,9.97
2018-06-14T00:51:59.494Z,8.07
2018-06-14T00:54:33.599Z,9.47
2018-06-14T00:57:24.797Z,8.10
2018-06-14T00:59:59.138Z,9.90
2018-06-14T01:02:34.053Z,9.63
2018-06-14T01:05:08.760Z,10.80
2018-06-14T01:07:42.949Z,9.30
2018-06-14T01:10:17.811Z,10.00
2018-06-14T01:12:52.434Z,11.30
2018-06-14T01:15:27.164Z,10.27
2018-06-14T01:18:01.735Z,10.33
2018-06-14T01:20:36.479Z,9.70
2018-06-14T01:23:11.109Z,10.50
2018-06-14T01:25:45.690Z,9.30
2018-06-14T01:28:20.267Z,9.90
2018-06-14T01:30:54.932Z,10.47
2018-06-14T01:33:29.581Z,9.77
2018-06-14T01:36:04.334Z,10.53
2018-06-14T01:38:38.887Z,9.40
2018-06-14T01:41:13.527Z,11.20
2018-06-14T01:43:48.025Z,10.20
2018-06-14T01:46:22.981Z,9.90
2018-06-14T01:48:57.276Z,9.63
2018-06-14T01:51:31.940Z,8.70
2018-06-14T01:54:07.035Z,9.30
2018-06-14T01:56:41.514Z,9.23
2018-06-14T01:59:16.210Z,8.33
2018-06-14T02:01:50.574Z,8.53
2018-06-14T02:04:25.704Z,8.60
2018-06-14T02:06:59.882Z,7.70
2018-06-14T02:09:34.490Z,7.80
2018-06-14T02:12:09.063Z,8.07
2018-06-14T02:14:43.670Z,7.40
2018-06-14T02:17:18.589Z,7.23
2018-06-14T02:19:52.893Z,8.33
2018-06-14T02:22:27.547Z,8.00
2018-06-14T02:25:02.182Z,7.80
2018-06-14T02:27:36.874Z,6.80
2018-06-14T02:30:11.383Z,6.50
2018-06-14T02:32:46.079Z,6.33
2018-06-14T02:35:20.977Z,7.43
2018-06-14T02:37:55.536Z,6.70
2018-06-14T02:40:30.552Z,7.33
2018-06-14T02:43:04.818Z,7.90
2018-06-14T02:45:39.432Z,6.53
2018-06-14T02:48:14.999Z,7.93
2018-06-14T02:50:49.836Z,6.70
2018-06-14T02:53:24.444Z,8.23
2018-06-14T02:55:59.310Z,8.60
2018-06-14T02:58:34.000Z,8.70
2018-06-14T03:01:08.806Z,8.60
2018-06-14T03:03:43.841Z,9.10
2018-06-14T03:06:18.036Z,9.37
2018-06-14T03:08:52.601Z,9.53
2018-06-14T03:11:27.480Z,8.50
2018-06-14T03:14:01.962Z,9.70
2018-06-14T03:16:36.654Z,8.83
2018-06-14T03:19:11.307Z,10.30
2018-06-14T03:21:46.729Z,8.33
2018-06-14T03:24:21.651Z,10.20
2018-06-14T03:26:56.290Z,9.97
2018-06-14T03:29:31.289Z,9.83
2018-06-14T03:32:05.723Z,9.27
2018-06-14T03:34:40.312Z,9.87
2018-06-14T03:37:14.740Z,9.80
2018-06-14T03:39:49.594Z,9.50
2018-06-14T03:42:23.904Z,9.07
2018-06-14T03:44:58.443Z,8.93
2018-06-14T03:47:32.977Z,9.53
2018-06-14T03:50:07.598Z,8.80
2018-06-14T03:52:42.375Z,7.77
2018-06-14T03:55:17.018Z,7.57
2018-06-14T03:57:52.030Z,7.50
2018-06-14T04:00:26.462Z,9.23
2018-06-14T04:03:01.141Z,9.80
2018-06-14T04:05:35.728Z,9.07
2018-06-14T04:08:10.267Z,8.07
2018-06-14T04:10:45.078Z,6.67
2018-06-14T04:13:19.783Z,7.80
2018-06-14T04:15:54.387Z,6.90
2018-06-14T04:18:28.950Z,6.60
2018-06-14T04:21:03.445Z,6.93
2018-06-14T04:23:37.922Z,6.93
2018-06-14T04:26:12.847Z,7.80
2018-06-14T04:28:47.092Z,8.60
2018-06-14T04:31:21.929Z,6.70
2018-06-14T04:33:56.645Z,9.00
2018-06-14T04:36:31.329Z,6.90
2018-06-14T04:39:08.976Z,6.60
2018-06-14T04:41:43.612Z,7.13
2018-06-14T04:44:18.329Z,8.33
2018-06-14T04:46:52.915Z,8.07
2018-06-14T04:49:27.642Z,8.33
2018-06-14T04:52:02.258Z,7.27
2018-06-14T04:54:36.944Z,9.07
2018-06-14T04:57:11.718Z,7.30
2018-06-14T04:59:46.425Z,6.93
2018-06-14T05:02:21.019Z,7.60
2018-06-14T05:04:55.688Z,7.80
2018-06-14T05:07:30.218Z,7.27
2018-06-14T05:10:05.114Z,7.37
2018-06-14T05:12:39.848Z,6.80
2018-06-14T05:15:14.503Z,6.90
2018-06-14T05:17:48.975Z,7.33
2018-06-14T05:20:23.716Z,6.23
2018-06-14T05:22:58.546Z,6.67
2018-06-14T05:25:33.027Z,5.40
2018-06-14T05:28:08.275Z,5.60
2018-06-14T05:30:43.110Z,5.37
2018-06-14T05:33:18.119Z,4.67
2018-06-14T05:35:52.726Z,4.70
2018-06-14T05:38:27.214Z,5.03
2018-06-14T05:41:01.852Z,4.33
2018-06-14T05:43:36.543Z,3.90
2018-06-14T05:46:11.230Z,3.20
2018-06-14T05:48:45.769Z,3.37
2018-06-14T05:51:20.474Z,3.20
2018-06-14T05:53:55.056Z,4.10
2018-06-14T05:56:29.859Z,3.23
2018-06-14T05:59:04.472Z,3.33
2018-06-14T06:01:38.994Z,2.90
2018-06-14T06:04:14.312Z,4.10
2018-06-14T06:06:49.292Z,2.53
2018-06-14T06:09:23.829Z,4.13
2018-06-14T06:11:58.546Z,3.47
2018-06-14T06:14:33.148Z,3.13
2018-06-14T06:17:07.963Z,3.80
2018-06-14T06:19:42.631Z,3.50
2018-06-14T06:22:17.330Z,3.30
2018-06-14T06:24:52.017Z,3.50
2018-06-14T06:27:26.830Z,3.30
2018-06-14T06:30:01.666Z,3.13
2018-06-14T06:32:36.791Z,3.70
2018-06-14T06:35:11.158Z,4.70
2018-06-14T06:37:45.885Z,3.67
2018-06-14T06:40:20.658Z,3.13
2018-06-14T06:42:55.604Z,2.83
2018-06-14T06:45:29.860Z,2.67
2018-06-14T06:48:04.673Z,3.20
2018-06-14T06:50:38.974Z,3.63
2018-06-14T06:53:13.633Z,2.50
2018-06-14T06:55:48.069Z,3.13
2018-06-14T06:58:23.161Z,3.50
2018-06-14T07:00:57.557Z,2.73
2018-06-14T07:03:32.257Z,3.43
2018-06-14T07:06:06.801Z,3.27
2018-06-14T07:08:41.597Z,3.20
2018-06-14T07:11:16.373Z,3.10
2018-06-14T07:13:51.315Z,3.07
2018-06-14T07:16:25.724Z,3.60
2018-06-14T07:19:00.792Z,3.20
2018-06-14T07:21:35.457Z,3.50
2018-06-14T07:24:10.514Z,2.83
2018-06-14T07:26:44.771Z,2.50
2018-06-14T07:29:19.324Z,3.37
2018-06-14T07:31:53.830Z,3.30
2018-06-14T07:34:28.430Z,3.30
2018-06-14T07:37:03.082Z,2.53
2018-06-14T07:39:37.679Z,2.93
2018-06-14T07:42:12.205Z,2.93
2018-06-14T07:44:46.898Z,3.07
2018-06-14T07:47:21.667Z,2.63
2018-06-14T07:49:56.010Z,2.77
2018-06-14T07:52:30.710Z,3.60
2018-06-14T07:55:05.489Z,2.93
2018-06-14T07:57:40.361Z,2.87
2018-06-14T08:00:14.778Z,3.07
2018-06-14T08:02:49.406Z,3.27
2018-06-14T08:05:24.061Z,3.57
2018-06-14T08:07:58.717Z,3.10
2018-06-14T08:10:33.287Z,2.80
2018-06-14T08:13:08.238Z,2.80
2018-06-14T08:15:42.868Z,3.30
2018-06-14T08:18:17.366Z,3.17
2018-06-14T08:20:52.012Z,3.00
2018-06-14T08:23:26.715Z,2.27
2018-06-14T08:26:01.369Z,2.50
2018-06-14T08:28:36.074Z,3.27
2018-06-14T08:31:11.269Z,5.00
2018-06-14T08:33:45.482Z,3.47
2018-06-14T08:36:20.189Z,2.83
2018-06-14T08:38:54.756Z,3.10
2018-06-14T08:41:29.786Z,2.50
2018-06-14T08:44:04.402Z,2.33
2018-06-14T08:46:39.090Z,2.40
2018-06-14T08:49:14.041Z,2.10
2018-06-14T08:51:48.295Z,2.80
2018-06-14T08:54:22.918Z,2.10
2018-06-14T08:56:58.092Z,2.50
2018-06-14T08:59:32.303Z,2.20
2018-06-14T09:02:06.928Z,2.37
2018-06-14T09:04:41.448Z,2.20
2018-06-14T09:07:15.979Z,2.50
2018-06-14T09:09:50.421Z,2.10
2018-06-14T09:12:24.993Z,2.27
2018-06-14T09:14:59.626Z,2.70
2018-06-14T09:17:34.331Z,3.17
2018-06-14T09:20:09.126Z,2.10
2018-06-14T09:22:43.794Z,3.00
2018-06-14T09:25:18.555Z,2.27
2018-06-14T09:27:53.321Z,2.90
2018-06-14T09:30:28.070Z,2.73
2018-06-14T09:33:02.530Z,2.70
2018-06-14T09:35:37.125Z,3.77
2018-06-14T09:38:12.538Z,3.20
2018-06-14T09:40:47.058Z,2.77
2018-06-14T09:43:21.742Z,2.97
2018-06-14T09:45:56.526Z,3.20
2018-06-14T09:48:30.924Z,2.73
2018-06-14T09:51:05.577Z,3.27
2018-06-14T09:53:40.224Z,3.30
2018-06-14T09:56:14.894Z,3.60
2018-06-14T09:58:49.563Z,4.17
2018-06-14T10:01:24.308Z,3.00
2018-06-14T10:03:59.185Z,2.73
2018-06-14T10:06:34.233Z,2.60
2018-06-14T10:09:10.715Z,2.80
2018-06-14T10:11:45.390Z,3.40
2018-06-14T10:14:19.988Z,2.60
2018-06-14T10:16:54.818Z,2.20
2018-06-14T10:19:29.487Z,2.40
2018-06-14T10:22:04.217Z,3.10
2018-06-14T10:24:39.000Z,3.70
2018-06-14T10:27:13.870Z,3.37
2018-06-14T10:29:48.606Z,2.80
2018-06-14T10:32:23.977Z,3.07
2018-06-14T10:34:59.017Z,2.43
2018-06-14T10:37:33.454Z,2.83
2018-06-14T10:40:08.248Z,2.60
2018-06-14T10:42:42.813Z,2.60
2018-06-14T10:45:17.478Z,3.23
2018-06-14T10:47:52.280Z,2.40
2018-06-14T10:50:26.949Z,2.60
2018-06-14T10:53:01.472Z,2.83
2018-06-14T10:55:36.187Z,2.40
2018-06-14T10:58:10.880Z,2.70
2018-06-14T11:00:45.502Z,2.50
2018-06-14T11:03:20.192Z,2.03
2018-06-14T11:05:54.872Z,2.67
2018-06-14T11:08:29.598Z,3.07
2018-06-14T11:11:04.304Z,2.37
2018-06-14T11:13:38.926Z,3.27
2018-06-14T11:16:13.938Z,2.70
2018-06-14T11:18:48.322Z,2.40
2018-06-14T11:21:23.000Z,2.10
2018-06-14T11:23:57.682Z,2.63
2018-06-14T11:26:32.195Z,2.40
2018-06-14T11:29:07.010Z,2.40
2018-06-14T11:31:41.563Z,2.43
2018-06-14T11:34:16.208Z,3.13
2018-06-14T11:36:51.678Z,3.20
2018-06-14T11:39:26.567Z,2.80
2018-06-14T11:42:02.523Z,2.27
2018-06-14T11:44:37.177Z,2.77
2018-06-14T11:47:11.832Z,3.37
2018-06-14T11:49:46.360Z,2.30
2018-06-14T11:52:21.402Z,2.43
2018-06-14T11:54:55.771Z,3.13
2018-06-14T11:57:32.196Z,2.83
2018-06-14T12:00:07.055Z,2.17
2018-06-14T12:02:41.683Z,2.77
2018-06-14T12:05:16.306Z,2.30
2018-06-14T12:07:51.903Z,2.67
2018-06-14T12:10:26.854Z,2.63
2018-06-14T12:13:01.149Z,2.90
2018-06-14T12:15:36.053Z,2.40
2018-06-14T12:18:10.494Z,2.73
2018-06-14T12:20:45.471Z,3.03
2018-06-14T12:23:19.731Z,2.80
2018-06-14T12:25:54.606Z,2.73
2018-06-14T12:28:29.260Z,2.67
2018-06-14T12:31:04.139Z,3.10
2018-06-14T12:33:38.737Z,2.97
2018-06-14T12:36:13.555Z,3.60
2018-06-14T12:38:48.282Z,4.30
2018-06-14T12:41:22.811Z,2.40
2018-06-14T12:43:57.618Z,2.40
2018-06-14T12:46:32.259Z,3.10
2018-06-14T12:49:07.001Z,2.83
2018-06-14T12:51:41.756Z,2.50
2018-06-14T12:54:16.352Z,2.60
2018-06-14T12:56:51.882Z,1.83
2018-06-14T12:59:26.770Z,2.50
2018-06-14T13:02:01.387Z,2.23
2018-06-14T13:04:36.014Z,2.27
2018-06-14T13:07:10.706Z,2.50
2018-06-14T13:09:45.334Z,2.63
2018-06-14T13:12:20.597Z,2.00
2018-06-14T13:14:55.192Z,2.73
2018-06-14T13:17:29.421Z,2.77
2018-06-14T13:20:04.174Z,2.60
2018-06-14T13:22:38.802Z,2.70
2018-06-14T13:25:13.285Z,2.70
2018-06-14T13:27:48.066Z,2.47
2018-06-14T13:30:22.615Z,2.63
2018-06-14T13:32:57.268Z,1.93
2018-06-14T13:35:32.037Z,1.80
2018-06-14T13:38:06.719Z,2.20
2018-06-14T13:40:41.352Z,2.60
2018-06-14T13:43:16.121Z,2.50
2018-06-14T13:45:50.602Z,2.20
2018-06-14T13:48:25.267Z,2.23
2018-06-14T13:50:59.956Z,3.40
2018-06-14T13:53:34.581Z,3.53
2018-06-14T13:56:09.284Z,2.53
2018-06-14T13:58:44.061Z,2.60
2018-06-14T14:01:18.660Z,2.70
2018-06-14T14:03:53.318Z,4.00
2018-06-14T14:06:28.660Z,3.63
2018-06-14T14:09:03.182Z,3.40
2018-06-14T14:11:37.399Z,2.73
2018-06-14T14:14:12.213Z,2.60
2018-06-14T14:16:47.362Z,2.47
2018-06-14T14:19:21.572Z,2.10
2018-06-14T14:21:56.306Z,2.50
2018-06-14T14:24:31.068Z,2.37
2018-06-14T14:27:05.708Z,3.40
2018-06-14T14:29:40.346Z,3.00
2018-06-14T14:32:14.942Z,3.40
2018-06-14T14:34:49.687Z,2.43
2018-06-14T14:37:24.362Z,1.87
2018-06-14T14:39:59.196Z,2.90
2018-06-14T14:42:34.477Z,3.27
2018-06-14T14:45:09.092Z,2.40
2018-06-14T14:47:43.664Z,2.13
2018-06-14T14:50:18.116Z,2.20
2018-06-14T14:52:52.624Z,2.10
2018-06-14T14:55:27.785Z,2.00
2018-06-14T14:58:02.114Z,2.40
2018-06-14T15:00:36.590Z,1.90
2018-06-14T15:03:12.052Z,2.40
2018-06-14T15:05:47.316Z,2.10
2018-06-14T15:08:21.500Z,2.50
2018-06-14T15:10:56.158Z,2.00
2018-06-14T15:13:30.770Z,2.80
2018-06-14T15:16:05.366Z,3.87
2018-06-14T15:18:39.872Z,4.27
2018-06-14T15:21:14.517Z,3.47
2018-06-14T15:23:49.199Z,2.40
2018-06-14T15:26:24.069Z,2.70
2018-06-14T15:28:58.228Z,2.80
2018-06-14T15:31:32.812Z,2.73
2018-06-14T15:34:08.334Z,2.27
2018-06-14T15:36:43.032Z,2.17
2018-06-14T15:39:17.554Z,2.27
2018-06-14T15:41:52.463Z,1.80
2018-06-14T15:44:27.062Z,3.20
2018-06-14T15:47:02.456Z,2.60
2018-06-14T15:49:37.328Z,3.20
2018-06-14T15:52:11.889Z,2.60
2018-06-14T15:55:03.497Z,2.33
2018-06-14T15:57:37.702Z,2.20
2018-06-14T16:00:12.385Z,1.80
2018-06-14T16:02:47.087Z,2.17
2018-06-14T16:05:22.023Z,1.93
2018-06-14T16:07:56.416Z,2.77
2018-06-14T16:10:30.963Z,2.43
2018-06-14T16:13:05.586Z,4.30
2018-06-14T16:15:40.150Z,3.27
2018-06-14T16:18:15.152Z,2.67
2018-06-14T16:20:49.826Z,2.90
2018-06-14T16:23:24.779Z,3.10
2018-06-14T16:25:59.824Z,3.30
2018-06-14T16:28:34.367Z,2.60
2018-06-14T16:31:09.205Z,2.07
2018-06-14T16:33:43.886Z,2.50
2018-06-14T16:36:18.429Z,2.93
2018-06-14T16:38:52.952Z,2.97
2018-06-14T16:41:28.030Z,2.60
2018-06-14T16:44:02.335Z,3.00
2018-06-14T16:46:36.844Z,2.73
2018-06-14T16:49:11.678Z,4.50
2018-06-14T16:51:46.349Z,4.80
2018-06-14T16:54:20.943Z,2.90
2018-06-14T16:56:56.563Z,2.80
2018-06-14T16:59:31.260Z,3.80
2018-06-14T17:02:05.992Z,2.70
2018-06-14T17:04:40.748Z,3.33
2018-06-14T17:07:15.464Z,3.40
2018-06-14T17:09:50.022Z,2.63
2018-06-14T17:12:24.612Z,2.40
2018-06-14T17:14:59.057Z,5.03
2018-06-14T17:17:33.638Z,3.80
2018-06-14T17:20:08.354Z,3.40
2018-06-14T17:22:42.836Z,2.40
2018-06-14T17:25:17.851Z,4.03
2018-06-14T17:27:52.194Z,2.80
2018-06-14T17:30:26.999Z,3.33
2018-06-14T17:33:02.090Z,2.97
2018-06-14T17:35:37.050Z,2.60
2018-06-14T17:38:11.620Z,3.40
2018-06-14T17:40:46.399Z,2.97
2018-06-14T17:43:21.117Z,4.07
2018-06-14T17:45:55.751Z,3.20
2018-06-14T17:48:30.250Z,2.70
2018-06-14T17:51:05.778Z,2.90
2018-06-14T17:53:40.927Z,3.30
2018-06-14T17:56:15.685Z,4.57
2018-06-14T17:58:50.145Z,3.30
2018-06-14T18:01:24.819Z,3.33
2018-06-14T18:03:59.389Z,2.80
2018-06-14T18:06:34.014Z,3.30
2018-06-14T18:09:09.501Z,3.90
2018-06-14T18:11:44.952Z,4.13
2018-06-14T18:14:19.990Z,3.93
2018-06-14T18:16:54.693Z,3.83
2018-06-14T18:19:29.367Z,3.57
2018-06-14T18:22:03.987Z,3.17
2018-06-14T18:24:38.844Z,3.03
2018-06-14T18:27:13.608Z,2.90
2018-06-14T18:29:48.357Z,2.57
2018-06-14T18:32:23.451Z,3.20
2018-06-14T18:34:58.827Z,2.20
2018-06-14T18:37:34.640Z,3.00
2018-06-14T18:40:08.852Z,2.90
2018-06-14T18:42:44.755Z,2.57
2018-06-14T18:45:19.952Z,3.10
2018-06-14T18:47:55.349Z,2.97
2018-06-14T18:50:30.942Z,2.93
2018-06-14T18:53:05.953Z,2.20
2018-06-14T18:55:42.047Z,3.07
2018-06-14T18:58:17.234Z,3.07
2018-06-14T19:00:53.279Z,2.80
2018-06-14T19:03:28.902Z,3.30
2018-06-14T19:06:04.227Z,2.60
2018-06-14T19:08:39.106Z,3.30
2018-06-14T19:11:15.146Z,2.97
2018-06-14T19:13:50.358Z,3.30
2018-06-14T19:16:26.231Z,2.50
2018-06-14T19:19:01.868Z,3.20
2018-06-14T19:21:37.121Z,3.10
2018-06-14T19:24:11.752Z,2.53
2018-06-14T19:26:46.893Z,2.87
2018-06-14T19:29:22.143Z,2.30
2018-06-14T19:31:57.287Z,3.50
2018-06-14T19:34:33.050Z,3.17
2018-06-14T19:37:08.108Z,2.20
2018-06-14T19:39:43.412Z,2.90
2018-06-14T19:42:18.550Z,2.90
2018-06-14T19:44:54.581Z,2.53
2018-06-14T19:47:30.660Z,3.80
2018-06-14T19:50:06.196Z,3.53
2018-06-14T19:52:42.317Z,3.27
2018-06-14T19:55:18.417Z,3.27
2018-06-14T19:57:53.771Z,4.07
2018-06-14T20:00:29.824Z,4.20
2018-06-14T20:03:05.689Z,3.70
2018-06-14T20:05:41.234Z,3.90
2018-06-14T20:08:18.950Z,4.07
2018-06-14T20:10:54.422Z,4.00
2018-06-14T20:13:31.117Z,3.73
2018-06-14T20:16:06.160Z,4.67
2018-06-14T20:18:41.265Z,4.50
2018-06-14T20:21:16.910Z,5.07
2018-06-14T20:23:52.530Z,4.90
2018-06-14T20:26:27.715Z,3.77
2018-06-14T20:29:02.459Z,4.83
2018-06-14T20:31:37.579Z,4.70
2018-06-14T20:34:12.316Z,4.80
2018-06-14T20:36:47.335Z,3.97
2018-06-14T20:39:21.797Z,4.17
2018-06-14T20:41:56.752Z,5.17
2018-06-14T20:44:31.758Z,4.70
2018-06-14T20:47:07.917Z,5.00
2018-06-14T20:49:42.630Z,5.00
2018-06-14T20:52:17.114Z,6.00
2018-06-14T20:54:52.881Z,6.27
2018-06-14T20:57:27.329Z,6.83
2018-06-14T21:00:01.977Z,6.43
2018-06-14T21:02:36.648Z,6.43
2018-06-14T21:05:11.319Z,6.33
2018-06-14T21:07:46.109Z,7.40
2018-06-14T21:10:21.142Z,7.60
2018-06-14T21:12:55.613Z,8.10
2018-06-14T21:15:30.514Z,7.87
2018-06-14T21:18:06.106Z,8.83
2018-06-14T21:20:40.983Z,8.00
2018-06-14T21:23:15.653Z,9.13
2018-06-14T21:25:49.961Z,7.97
2018-06-14T21:28:24.658Z,7.13
2018-06-14T21:30:59.364Z,8.87
2018-06-14T21:33:34.047Z,7.80
2018-06-14T21:36:08.603Z,9.27
2018-06-14T21:38:43.492Z,8.87
2018-06-14T21:41:18.033Z,9.50
2018-06-14T21:43:53.310Z,13.27
2018-06-14T21:46:27.674Z,9.97
2018-06-14T21:49:02.190Z,8.30
2018-06-14T21:51:36.898Z,9.30
2018-06-14T21:54:11.527Z,9.70
2018-06-14T21:56:46.052Z,9.83
2018-06-14T21:59:20.614Z,9.90
2018-06-14T22:01:55.214Z,10.17
2018-06-14T22:04:30.918Z,12.60
2018-06-14T22:07:05.593Z,10.43
2018-06-14T22:09:40.306Z,10.00
2018-06-14T22:12:14.949Z,9.97
2018-06-14T22:14:49.656Z,10.03
2018-06-14T22:17:24.311Z,8.23
2018-06-14T22:19:58.834Z,7.97
2018-06-14T22:22:33.880Z,8.57
2018-06-14T22:25:08.950Z,9.30
2018-06-14T22:27:44.034Z,9.10
2018-06-14T22:30:18.965Z,9.60
2018-06-14T22:33:10.394Z,7.93
2018-06-14T22:35:44.971Z,8.60
2018-06-14T22:38:19.936Z,9.30
2018-06-14T22:40:54.356Z,8.53
2018-06-14T22:43:29.000Z,9.20
2018-06-14T22:46:03.845Z,8.00
2018-06-14T22:48:38.444Z,8.33
2018-06-14T22:51:17.994Z,8.60
2018-06-14T22:53:52.856Z,8.70
2018-06-14T22:56:27.381Z,7.63
2018-06-14T22:59:02.256Z,8.80
2018-06-14T23:01:45.280Z,7.70
2018-06-14T23:04:22.130Z,7.97
2018-06-14T23:06:56.754Z,8.50
2018-06-14T23:10:46.054Z,7.80
2018-06-14T23:13:20.863Z,7.40
2018-06-14T23:15:55.441Z,8.77
2018-06-14T23:18:30.154Z,6.93
2018-06-14T23:21:04.833Z,7.40
2018-06-14T23:23:39.475Z,7.30
2018-06-14T23:26:14.184Z,7.17
2018-06-14T23:28:49.133Z,6.70
2018-06-14T23:31:23.440Z,6.43
2018-06-14T23:33:58.685Z,7.30
2018-06-14T23:36:33.728Z,6.07
2018-06-14T23:39:08.600Z,6.60
2018-06-14T23:41:43.976Z,7.37
2018-06-14T23:44:19.023Z,6.63
2018-06-14T23:46:53.716Z,5.90
2018-06-14T23:49:27.863Z,6.53
2018-06-14T23:52:02.470Z,6.20
2018-06-14T23:54:37.552Z,5.37
2018-06-14T23:57:11.821Z,6.00
2018-06-14T23:59:46.584Z,6.63
